This is the latest recevied weather packets stored in our database for station/object W2SBL-1. If no packets are shown the sender has not sent any weather packets the latest 10 day(s).
| Time | Temp. | Humidity | Pressure | Rain* | Wind** | Luminosity | Snow |
|---|---|---|---|---|---|---|---|
| 1777253711 | 8.89° C | 55% | 1021.5 hPa | - | - | - | - |
| 1777252811 | 9.44° C | 55% | 1021.5 hPa | - | - | - | - |
| 1777251911 | 10° C | 55% | 1021.4 hPa | - | - | - | - |
| 1777251010 | 10.56° C | 55% | 1021.1 hPa | - | - | - | - |
| 1777250110 | 11.11° C | 55% | 1020.9 hPa | - | - | - | - |
| 1777249210 | 11.67° C | 55% | 1020.8 hPa | - | - | - | - |
| 1777248310 | 12.22° C | 55% | 1020.4 hPa | - | - | - | - |
| 1777247410 | 12.78° C | 55% | 1020.5 hPa | - | - | - | - |
| 1777246510 | 13.33° C | 55% | 1020.5 hPa | - | - | - | - |
| 1777245610 | 13.33° C | 55% | 1020.5 hPa | - | - | - | - |
| 1777244710 | 13.89° C | 54% | 1020.4 hPa | - | - | - | - |
| 1777243810 | 15° C | 55% | 1020.3 hPa | - | - | - | - |
| 1777242910 | 16.11° C | 54% | 1020.4 hPa | - | - | - | - |
| 1777242010 | 18.33° C | 50% | 1020.3 hPa | - | - | - | - |
| 1777241110 | 20.56° C | 48% | 1020.2 hPa | - | - | - | - |
| 1777240210 | 21.11° C | 47% | 1019.9 hPa | - | - | - | - |
| 1777239310 | 21.67° C | 47% | 1019.9 hPa | - | - | - | - |
| 1777238410 | 20.56° C | 48% | 1019.8 hPa | - | - | - | - |
| 1777237509 | 20° C | 49% | 1019.9 hPa | - | - | - | - |
| 1777236609 | 20.56° C | 48% | 1019.7 hPa | - | - | - | - |
| 1777235709 | 20.56° C | 47% | 1019.6 hPa | - | - | - | - |
| 1777234809 | 21.11° C | 46% | 1019.5 hPa | - | - | - | - |
| 1777233909 | 20.56° C | 46% | 1019.4 hPa | - | - | - | - |
| 1777233009 | 18.89° C | 49% | 1019.5 hPa | - | - | - | - |
| 1777232109 | 18.33° C | 50% | 1019.9 hPa | - | - | - | - |
* Rain since midnight (hover to see other rain measurements)
** Current wind speed in m/s (hover to see current wind gust speed)